createdAt,value
2019-01-24T00:01:36.090Z,-1.07
2019-01-24T00:04:05.917Z,-0.67
2019-01-24T00:06:35.420Z,-0.80
2019-01-24T00:09:08.358Z,-0.75
2019-01-24T00:11:37.853Z,-0.75
2019-01-24T00:14:07.336Z,-0.83
2019-01-24T00:16:36.836Z,-0.92
2019-01-24T00:19:06.554Z,-0.96
2019-01-24T00:21:36.055Z,-0.75
2019-01-24T00:24:05.561Z,-0.69
2019-01-24T00:26:35.180Z,-0.69
2019-01-24T00:29:04.786Z,-0.82
2019-01-24T00:31:34.270Z,-0.80
2019-01-24T00:34:03.973Z,-0.87
2019-01-24T00:36:33.627Z,-1.28
2019-01-24T00:39:03.704Z,-1.15
2019-01-24T00:41:33.188Z,-0.94
2019-01-24T00:44:02.832Z,-0.81
2019-01-24T00:46:33.361Z,-0.78
2019-01-24T00:49:02.863Z,-0.96
2019-01-24T00:51:32.362Z,-0.86
2019-01-24T00:54:02.064Z,-0.90
2019-01-24T00:56:31.737Z,-0.99
2019-01-24T00:59:01.199Z,-1.06
2019-01-24T01:01:30.691Z,-1.01
2019-01-24T01:04:00.164Z,-0.92
2019-01-24T01:06:29.714Z,-1.07
2019-01-24T01:08:59.422Z,-0.98
2019-01-24T01:11:28.885Z,-1.04
2019-01-24T01:13:58.435Z,-0.94
2019-01-24T01:16:28.009Z,-0.81
2019-01-24T01:18:57.499Z,-0.86
2019-01-24T01:21:27.000Z,-0.70
2019-01-24T01:23:56.589Z,-0.64
2019-01-24T01:26:26.090Z,-0.72
2019-01-24T01:28:55.583Z,-0.98
2019-01-24T01:31:25.175Z,-1.17
2019-01-24T01:33:54.702Z,-1.14
2019-01-24T01:36:24.224Z,-1.37
2019-01-24T01:38:53.774Z,-1.17
2019-01-24T01:41:23.303Z,-1.08
2019-01-24T01:43:52.754Z,-0.78
2019-01-24T01:46:22.408Z,-0.89
2019-01-24T01:48:51.864Z,-0.79
2019-01-24T01:51:21.335Z,-0.68
2019-01-24T01:53:50.858Z,-0.80
2019-01-24T01:56:20.349Z,-0.81
2019-01-24T01:58:49.881Z,-0.53
2019-01-24T02:01:19.360Z,-0.69
2019-01-24T02:03:48.881Z,-0.94
2019-01-24T02:06:18.361Z,-0.85
2019-01-24T02:08:47.836Z,-0.85
2019-01-24T02:11:17.395Z,-0.96
2019-01-24T02:13:46.857Z,-0.96
2019-01-24T02:16:16.428Z,-0.70
2019-01-24T02:18:45.901Z,-0.56
2019-01-24T02:21:15.592Z,-0.75
2019-01-24T02:23:45.088Z,-0.69
2019-01-24T02:26:14.561Z,-0.61
2019-01-24T02:28:44.108Z,-0.59
2019-01-24T02:31:13.585Z,-0.49
2019-01-24T02:33:43.081Z,-0.49
2019-01-24T02:36:12.546Z,-0.68
2019-01-24T02:38:42.064Z,-0.66
2019-01-24T02:41:11.539Z,-0.85
2019-01-24T02:43:41.068Z,-0.64
2019-01-24T02:46:10.573Z,-0.64
2019-01-24T02:48:40.042Z,-0.71
2019-01-24T02:51:09.543Z,-0.72
2019-01-24T02:53:39.010Z,-0.72
2019-01-24T02:56:08.651Z,-0.56
2019-01-24T02:58:38.124Z,-0.38
2019-01-24T03:01:07.601Z,-0.04
2019-01-24T03:03:37.128Z,0.04
2019-01-24T03:06:06.596Z,-0.12
2019-01-24T03:08:36.110Z,-0.14
2019-01-24T03:11:05.862Z,-0.14
2019-01-24T03:13:35.349Z,-0.18
2019-01-24T03:16:05.030Z,-0.18
2019-01-24T03:18:34.732Z,-0.13
2019-01-24T03:21:04.413Z,-0.13
2019-01-24T03:23:33.937Z,-0.39
2019-01-24T03:26:03.414Z,-0.10
2019-01-24T03:28:32.916Z,-0.07
2019-01-24T03:31:02.422Z,0.07
2019-01-24T03:33:31.885Z,0.07
2019-01-24T03:36:01.685Z,0.16
2019-01-24T03:38:31.167Z,0.16
2019-01-24T03:41:00.642Z,0.08
2019-01-24T03:43:30.131Z,0.13
2019-01-24T03:45:59.643Z,0.15
2019-01-24T03:48:29.343Z,0.18
2019-01-24T03:50:58.823Z,0.17
2019-01-24T03:53:28.329Z,0.02
2019-01-24T03:55:57.919Z,0.02
2019-01-24T03:58:27.602Z,0.10
2019-01-24T04:00:57.333Z,0.03
2019-01-24T04:03:26.834Z,0.03
2019-01-24T04:05:56.324Z,0.00
2019-01-24T04:08:25.905Z,0.14
2019-01-24T04:10:55.754Z,0.14
2019-01-24T04:13:25.296Z,0.20
2019-01-24T04:15:55.066Z,0.11
2019-01-24T04:18:24.607Z,0.08
2019-01-24T04:20:54.099Z,0.08
2019-01-24T04:23:24.032Z,-0.08
2019-01-24T04:25:53.547Z,-0.02
2019-01-24T04:28:23.018Z,-0.02
2019-01-24T04:30:52.541Z,-0.02
2019-01-24T04:33:22.021Z,-0.06
2019-01-24T04:35:51.666Z,0.04
2019-01-24T04:38:21.151Z,0.04
2019-01-24T04:40:50.674Z,0.03
2019-01-24T04:43:20.182Z,0.03
2019-01-24T04:45:49.661Z,-0.07
2019-01-24T04:48:19.251Z,-0.12
2019-01-24T04:50:48.764Z,-0.23
2019-01-24T04:53:18.250Z,-0.14
2019-01-24T04:55:47.787Z,0.09
2019-01-24T04:58:17.261Z,0.08
2019-01-24T05:00:46.764Z,0.16
2019-01-24T05:03:16.299Z,0.16
2019-01-24T05:05:45.900Z,0.16
2019-01-24T05:08:15.396Z,0.10
2019-01-24T05:10:44.981Z,-0.09
2019-01-24T05:13:14.518Z,-0.09
2019-01-24T05:15:43.970Z,-0.07
2019-01-24T05:18:13.666Z,0.12
2019-01-24T05:20:43.261Z,0.04
2019-01-24T05:23:12.740Z,0.05
2019-01-24T05:25:42.262Z,-0.13
2019-01-24T05:28:11.764Z,-0.16
2019-01-24T05:30:41.314Z,-0.16
2019-01-24T05:33:10.950Z,-0.06
2019-01-24T05:35:40.548Z,-0.06
2019-01-24T05:38:10.243Z,0.08
2019-01-24T05:40:39.933Z,0.08
2019-01-24T05:43:09.426Z,-0.06
2019-01-24T05:45:38.944Z,0.08
2019-01-24T05:48:08.485Z,-0.01
2019-01-24T05:50:37.953Z,-0.01
2019-01-24T05:53:07.459Z,-0.20
2019-01-24T05:55:36.990Z,-0.41
2019-01-24T05:58:06.451Z,-0.41
2019-01-24T06:00:38.925Z,-0.34
2019-01-24T06:03:08.423Z,-0.16
2019-01-24T06:05:41.817Z,0.06
2019-01-24T06:08:09.730Z,0.16
2019-01-24T06:10:39.295Z,0.16
2019-01-24T06:13:08.786Z,-0.07
2019-01-24T06:15:38.317Z,0.11
2019-01-24T06:18:07.829Z,0.11
2019-01-24T06:20:37.313Z,0.03
2019-01-24T06:23:06.821Z,-0.01
2019-01-24T06:25:36.294Z,-0.01
2019-01-24T06:28:06.398Z,0.04
2019-01-24T06:30:35.906Z,0.03
2019-01-24T06:33:05.420Z,0.09
2019-01-24T06:35:34.944Z,0.08
2019-01-24T06:38:04.634Z,0.08
2019-01-24T06:40:34.238Z,-0.26
2019-01-24T06:43:03.914Z,-0.05
2019-01-24T06:45:33.445Z,0.05
2019-01-24T06:48:03.097Z,-0.07
2019-01-24T06:50:34.240Z,0.09
2019-01-24T06:53:03.739Z,0.09
2019-01-24T06:55:33.207Z,0.06
2019-01-24T06:58:03.083Z,0.16
2019-01-24T07:00:32.636Z,0.02
2019-01-24T07:03:02.118Z,0.02
2019-01-24T07:05:31.607Z,0.25
2019-01-24T07:08:01.069Z,0.25
2019-01-24T07:10:30.749Z,0.27
2019-01-24T07:13:00.374Z,0.27
2019-01-24T07:15:29.932Z,0.25
2019-01-24T07:17:59.431Z,0.31
2019-01-24T07:20:28.937Z,0.41
2019-01-24T07:22:58.449Z,0.45
2019-01-24T07:25:29.080Z,0.45
2019-01-24T07:27:58.583Z,0.48
2019-01-24T07:30:28.115Z,0.50
2019-01-24T07:32:59.719Z,0.56
2019-01-24T07:35:29.367Z,0.36
2019-01-24T07:37:58.872Z,0.33
2019-01-24T07:40:28.468Z,0.51
2019-01-24T07:42:57.946Z,0.38
2019-01-24T07:45:32.852Z,0.37
2019-01-24T07:48:02.387Z,0.37
2019-01-24T07:50:32.132Z,0.42
2019-01-24T07:53:01.658Z,0.42
2019-01-24T07:55:31.184Z,0.59
2019-01-24T07:58:00.888Z,0.51
2019-01-24T08:00:30.785Z,0.71
2019-01-24T08:03:00.502Z,0.71
2019-01-24T08:05:30.212Z,0.71
2019-01-24T08:08:00.000Z,0.73
2019-01-24T08:10:29.562Z,0.81
2019-01-24T08:12:59.045Z,0.82
2019-01-24T08:15:29.228Z,0.84
2019-01-24T08:17:58.967Z,0.84
2019-01-24T08:20:29.077Z,0.88
2019-01-24T08:22:58.590Z,0.91
2019-01-24T08:25:28.091Z,0.93
2019-01-24T08:27:57.555Z,0.96
2019-01-24T08:30:32.566Z,1.04
2019-01-24T08:33:02.038Z,1.16
2019-01-24T08:35:31.740Z,1.04
2019-01-24T08:38:01.264Z,1.24
2019-01-24T08:40:30.732Z,1.16
2019-01-24T08:43:00.295Z,1.31
2019-01-24T08:45:29.765Z,1.15
2019-01-24T08:47:59.304Z,1.15
2019-01-24T08:50:28.763Z,1.31
2019-01-24T08:52:58.647Z,1.36
2019-01-24T08:55:33.935Z,1.40
2019-01-24T08:58:03.720Z,1.34
2019-01-24T09:00:33.252Z,1.47
2019-01-24T09:03:02.766Z,1.61
2019-01-24T09:05:32.568Z,1.78
2019-01-24T09:08:02.044Z,1.79
2019-01-24T09:10:33.805Z,1.81
2019-01-24T09:13:03.653Z,1.79
2019-01-24T09:15:33.263Z,1.83
2019-01-24T09:18:02.779Z,1.68
2019-01-24T09:20:32.357Z,1.76
2019-01-24T09:23:01.978Z,1.82
2019-01-24T09:25:31.518Z,1.72
2019-01-24T09:28:01.107Z,1.87
2019-01-24T09:30:30.899Z,1.97
2019-01-24T09:33:00.483Z,1.93
2019-01-24T09:35:29.961Z,1.91
2019-01-24T09:37:59.651Z,1.71
2019-01-24T09:40:29.169Z,2.06
2019-01-24T09:42:58.698Z,1.84
2019-01-24T09:45:29.709Z,1.95
2019-01-24T09:48:01.011Z,2.14
2019-01-24T09:50:31.233Z,2.26
2019-01-24T09:53:00.745Z,2.08
2019-01-24T09:55:30.540Z,2.07
2019-01-24T09:58:00.075Z,2.34
2019-01-24T10:00:34.381Z,2.28
2019-01-24T10:03:04.085Z,2.09
2019-01-24T10:05:33.547Z,2.41
2019-01-24T10:08:03.036Z,2.31
2019-01-24T10:10:32.555Z,2.26
2019-01-24T10:13:02.141Z,2.20
2019-01-24T10:15:31.855Z,2.05
2019-01-24T10:18:01.345Z,2.18
2019-01-24T10:20:30.901Z,1.97
2019-01-24T10:23:00.418Z,2.14
2019-01-24T10:25:35.079Z,2.09
2019-01-24T10:28:04.689Z,2.27
2019-01-24T10:30:34.184Z,2.38
2019-01-24T10:33:04.132Z,2.44
2019-01-24T10:35:33.606Z,2.65
2019-01-24T10:38:03.123Z,2.54
2019-01-24T10:40:33.563Z,2.53
2019-01-24T10:43:03.053Z,2.51
2019-01-24T10:45:33.004Z,2.49
2019-01-24T10:48:02.518Z,2.46
2019-01-24T10:50:32.115Z,2.15
2019-01-24T10:53:01.633Z,2.39
2019-01-24T10:55:31.191Z,2.21
2019-01-24T10:58:02.867Z,2.09
2019-01-24T11:00:38.271Z,2.12
2019-01-24T11:03:10.530Z,2.22
2019-01-24T11:05:40.013Z,1.88
2019-01-24T11:08:09.507Z,2.02
2019-01-24T11:10:39.118Z,1.93
2019-01-24T11:13:08.610Z,2.07
2019-01-24T11:15:38.347Z,1.98
2019-01-24T11:18:08.936Z,2.02
2019-01-24T11:20:38.510Z,1.83
2019-01-24T11:23:08.050Z,1.43
2019-01-24T11:25:37.558Z,1.59
2019-01-24T11:28:07.242Z,1.58
2019-01-24T11:30:37.120Z,1.74
2019-01-24T11:33:07.759Z,1.62
2019-01-24T11:35:38.209Z,1.61
2019-01-24T11:38:08.213Z,1.37
2019-01-24T11:40:37.710Z,1.73
2019-01-24T11:43:07.915Z,1.65
2019-01-24T11:45:43.034Z,1.73
2019-01-24T11:48:12.537Z,1.83
2019-01-24T11:50:42.123Z,1.76
2019-01-24T11:53:11.743Z,1.81
2019-01-24T11:55:41.295Z,1.83
2019-01-24T11:58:10.757Z,2.02
2019-01-24T12:00:45.754Z,2.26
2019-01-24T12:03:15.215Z,1.45
2019-01-24T12:05:44.808Z,1.86
2019-01-24T12:08:14.301Z,1.68
2019-01-24T12:10:43.779Z,1.84
2019-01-24T12:13:13.289Z,2.15
2019-01-24T12:15:42.806Z,2.32
2019-01-24T12:18:12.314Z,2.53
2019-01-24T12:20:41.787Z,2.57
2019-01-24T12:23:11.307Z,1.28
2019-01-24T12:25:40.790Z,1.39
2019-01-24T12:28:10.318Z,1.57
2019-01-24T12:30:39.791Z,1.94
2019-01-24T12:33:09.290Z,1.70
2019-01-24T12:35:38.904Z,1.35
2019-01-24T12:38:08.589Z,1.35
2019-01-24T12:40:38.072Z,1.55
2019-01-24T12:43:07.533Z,1.61
2019-01-24T12:45:38.246Z,1.66
2019-01-24T12:48:08.286Z,1.44
2019-01-24T12:50:37.999Z,1.11
2019-01-24T12:53:08.385Z,0.82
2019-01-24T12:55:37.942Z,1.33
2019-01-24T12:58:07.436Z,0.59
2019-01-24T13:00:40.611Z,0.59
2019-01-24T13:03:10.323Z,0.72
2019-01-24T13:05:39.797Z,1.18
2019-01-24T13:08:09.738Z,1.26
2019-01-24T13:10:39.346Z,0.83
2019-01-24T13:13:09.040Z,0.83
2019-01-24T13:15:38.775Z,1.42
2019-01-24T13:18:08.546Z,1.64
2019-01-24T13:20:38.267Z,1.86
2019-01-24T13:23:08.120Z,1.82
2019-01-24T13:25:38.299Z,1.47
2019-01-24T13:28:08.145Z,0.55
2019-01-24T13:30:38.122Z,0.00
2019-01-24T13:33:08.468Z,0.00
2019-01-24T13:35:38.590Z,0.74
2019-01-24T13:38:08.753Z,0.16
2019-01-24T13:40:38.299Z,0.16
2019-01-24T13:43:08.687Z,0.92
2019-01-24T13:45:39.776Z,0.92
2019-01-24T13:48:09.572Z,1.09
2019-01-24T13:50:39.075Z,1.15
2019-01-24T13:53:09.139Z,0.16
2019-01-24T13:55:39.494Z,0.16
2019-01-24T13:58:09.684Z,0.89
2019-01-24T14:00:40.746Z,0.75
2019-01-24T14:03:44.452Z,0.75
2019-01-24T14:06:13.920Z,1.21
2019-01-24T14:08:43.528Z,0.48
2019-01-24T14:11:18.000Z,0.48
2019-01-24T14:13:44.290Z,0.60
2019-01-24T14:16:13.811Z,0.91
2019-01-24T14:18:43.272Z,0.46
2019-01-24T14:21:12.758Z,0.46
2019-01-24T14:23:42.255Z,0.61
2019-01-24T14:26:11.814Z,0.90
2019-01-24T14:28:41.291Z,1.03
2019-01-24T14:31:11.025Z,1.16
2019-01-24T14:33:40.482Z,1.16
2019-01-24T14:36:10.045Z,1.28
2019-01-24T14:38:39.822Z,1.12
2019-01-24T14:41:09.320Z,1.12
2019-01-24T14:43:38.827Z,1.17
2019-01-24T14:46:08.417Z,1.14
2019-01-24T14:48:37.960Z,1.14
2019-01-24T14:51:07.418Z,1.06
2019-01-24T14:53:37.065Z,0.91
2019-01-24T14:56:06.575Z,0.78
2019-01-24T14:58:36.075Z,0.78
2019-01-24T15:01:26.804Z,0.69
2019-01-24T15:03:57.324Z,0.71
2019-01-24T15:06:26.951Z,0.61
2019-01-24T15:08:56.711Z,0.55
2019-01-24T15:11:26.196Z,0.52
2019-01-24T15:13:55.775Z,0.38
2019-01-24T15:16:25.967Z,0.39
2019-01-24T15:18:55.514Z,0.35
2019-01-24T15:21:25.184Z,0.28
2019-01-24T15:23:54.711Z,0.32
2019-01-24T15:26:24.193Z,0.32
2019-01-24T15:28:53.697Z,0.43
2019-01-24T15:31:23.148Z,0.43
2019-01-24T15:33:52.788Z,0.38
2019-01-24T15:36:22.353Z,0.24
2019-01-24T15:38:51.831Z,0.37
2019-01-24T15:41:21.377Z,0.52
2019-01-24T15:43:50.860Z,0.28
2019-01-24T15:46:20.456Z,0.48
2019-01-24T15:48:49.933Z,0.50
2019-01-24T15:51:19.746Z,0.53
2019-01-24T15:53:49.346Z,0.32
2019-01-24T15:56:18.840Z,0.32
2019-01-24T15:58:48.351Z,0.32
2019-01-24T16:01:17.819Z,0.32
2019-01-24T16:03:47.335Z,0.10
2019-01-24T16:06:16.802Z,0.33
2019-01-24T16:08:46.396Z,0.28
2019-01-24T16:11:15.978Z,0.20
2019-01-24T16:13:45.607Z,0.12
2019-01-24T16:16:15.142Z,0.20
2019-01-24T16:18:44.680Z,0.25
2019-01-24T16:21:14.821Z,0.26
2019-01-24T16:23:44.693Z,0.12
2019-01-24T16:26:15.728Z,0.07
2019-01-24T16:31:14.120Z,0.11
2019-01-24T16:33:43.709Z,0.11
2019-01-24T16:36:13.315Z,0.06
2019-01-24T16:38:43.130Z,0.05
2019-01-24T16:41:13.101Z,0.12
2019-01-24T16:43:43.183Z,0.07
2019-01-24T16:46:12.902Z,0.05
2019-01-24T16:48:42.832Z,0.05
2019-01-24T16:51:12.493Z,0.05
2019-01-24T16:53:42.225Z,0.21
2019-01-24T16:56:12.013Z,-0.04
2019-01-24T16:58:41.628Z,-0.07
2019-01-24T17:01:17.784Z,-0.04
2019-01-24T17:03:47.409Z,-0.26
2019-01-24T17:06:17.296Z,-0.17
2019-01-24T17:08:47.734Z,-0.20
2019-01-24T17:11:17.279Z,-0.30
2019-01-24T17:13:47.003Z,-0.39
2019-01-24T17:16:16.488Z,-0.39
2019-01-24T17:18:45.964Z,-0.25
2019-01-24T17:21:15.464Z,-0.22
2019-01-24T17:23:45.078Z,-0.56
2019-01-24T17:26:14.722Z,-0.30
2019-01-24T17:28:44.290Z,-0.32
2019-01-24T17:31:13.872Z,-0.22
2019-01-24T17:33:43.531Z,-0.42
2019-01-24T17:36:13.042Z,-0.31
2019-01-24T17:38:42.511Z,-0.37
2019-01-24T17:41:12.102Z,-0.29
2019-01-24T17:43:41.705Z,-0.29
2019-01-24T17:46:11.235Z,-0.15
2019-01-24T17:48:40.922Z,-0.25
2019-01-24T17:51:10.509Z,-0.25
2019-01-24T17:53:43.219Z,-0.41
2019-01-24T17:56:12.796Z,-0.41
2019-01-24T17:58:42.368Z,-0.37
2019-01-24T18:01:11.853Z,-0.70
2019-01-24T18:03:42.606Z,-0.71
2019-01-24T18:06:12.339Z,-0.78
2019-01-24T18:08:41.988Z,-0.69
2019-01-24T18:11:11.465Z,-0.86
2019-01-24T18:13:40.969Z,-0.86
2019-01-24T18:16:10.686Z,-0.62
2019-01-24T18:18:40.201Z,-0.62
2019-01-24T18:21:09.976Z,-0.45
2019-01-24T18:23:39.586Z,-0.45
2019-01-24T18:26:09.108Z,-0.53
2019-01-24T18:28:38.787Z,-0.38
2019-01-24T18:31:08.274Z,-0.38
2019-01-24T18:33:37.985Z,-0.31
2019-01-24T18:36:07.679Z,-0.31
2019-01-24T18:38:38.617Z,-0.39
2019-01-24T18:41:08.969Z,-0.35
2019-01-24T18:43:39.237Z,-0.39
2019-01-24T18:46:08.850Z,-0.39
2019-01-24T18:48:38.323Z,-0.38
2019-01-24T18:51:07.821Z,-0.56
2019-01-24T18:53:37.335Z,-0.56
2019-01-24T18:56:06.943Z,-0.43
2019-01-24T18:58:36.459Z,-0.51
2019-01-24T19:01:06.213Z,-0.87
2019-01-24T19:03:35.720Z,-0.60
2019-01-24T19:06:05.435Z,-0.60
2019-01-24T19:08:34.940Z,-0.64
2019-01-24T19:11:05.036Z,-0.67
2019-01-24T19:13:34.812Z,-0.80
2019-01-24T19:16:06.949Z,-0.72
2019-01-24T19:18:36.987Z,-0.72
2019-01-24T19:21:06.701Z,-0.81
2019-01-24T19:23:36.178Z,-0.81
2019-01-24T19:26:05.897Z,-0.85
2019-01-24T19:28:35.634Z,-0.85
2019-01-24T19:31:05.261Z,-1.26
2019-01-24T19:33:34.853Z,-1.00
2019-01-24T19:36:04.457Z,-1.05
2019-01-24T19:38:33.958Z,-1.24
2019-01-24T19:41:03.492Z,-1.20
2019-01-24T19:43:33.324Z,-1.20
2019-01-24T19:46:02.898Z,-1.23
2019-01-24T19:48:32.418Z,-1.16
2019-01-24T19:51:02.209Z,-1.10
2019-01-24T19:53:31.692Z,-0.95
2019-01-24T19:56:01.168Z,-0.86
2019-01-24T19:58:30.696Z,-0.90
2019-01-24T20:01:00.206Z,-0.79
2019-01-24T20:03:29.988Z,-0.79
2019-01-24T20:05:59.568Z,-0.95
2019-01-24T20:08:29.506Z,-0.91
2019-01-24T20:10:59.140Z,-0.85
2019-01-24T20:13:29.195Z,-0.88
2019-01-24T20:15:58.772Z,-0.88
2019-01-24T20:18:28.338Z,-0.97
2019-01-24T20:20:57.902Z,-0.99
2019-01-24T20:23:27.402Z,-0.96
2019-01-24T20:25:56.911Z,-0.99
2019-01-24T20:28:26.409Z,-1.14
2019-01-24T20:30:55.935Z,-1.09
2019-01-24T20:33:25.761Z,-0.90
2019-01-24T20:35:57.922Z,-0.90
2019-01-24T20:38:27.423Z,-1.01
2019-01-24T20:40:57.006Z,-1.01
2019-01-24T20:43:26.505Z,-0.96
2019-01-24T20:45:55.994Z,-1.16
2019-01-24T20:48:25.514Z,-1.08
2019-01-24T20:50:55.145Z,-1.09
2019-01-24T20:53:24.955Z,-1.07
2019-01-24T20:55:54.450Z,-1.07
2019-01-24T20:58:23.926Z,-1.21
2019-01-24T21:00:53.437Z,-1.21
2019-01-24T21:03:22.929Z,-1.30
2019-01-24T21:05:52.499Z,-1.30
2019-01-24T21:08:22.005Z,-1.17
2019-01-24T21:10:51.671Z,-1.26
2019-01-24T21:13:21.144Z,-1.17
2019-01-24T21:15:50.643Z,-1.08
2019-01-24T21:18:20.170Z,-1.19
2019-01-24T21:20:49.745Z,-1.19
2019-01-24T21:23:19.354Z,-1.28
2019-01-24T21:25:48.845Z,-1.12
2019-01-24T21:28:18.342Z,-1.17
2019-01-24T21:30:47.953Z,-1.16
2019-01-24T21:33:17.525Z,-1.32
2019-01-24T21:35:47.090Z,-1.15
2019-01-24T21:38:16.694Z,-1.09
2019-01-24T21:40:46.204Z,-1.12
2019-01-24T21:43:15.703Z,-1.22
2019-01-24T21:45:45.335Z,-1.37
2019-01-24T21:48:14.824Z,-1.37
2019-01-24T21:50:46.294Z,-1.68
2019-01-24T21:53:15.869Z,-1.31
2019-01-24T21:55:45.373Z,-1.28
2019-01-24T21:58:14.946Z,-1.72
2019-01-24T22:00:44.513Z,-1.55
2019-01-24T22:03:14.011Z,-1.59
2019-01-24T22:05:43.561Z,-1.57
2019-01-24T22:08:13.072Z,-1.57
2019-01-24T22:10:42.745Z,-1.55
2019-01-24T22:13:12.232Z,-1.47
2019-01-24T22:15:41.715Z,-1.61
2019-01-24T22:18:11.230Z,-1.60
2019-01-24T22:20:40.963Z,-1.52
2019-01-24T22:23:10.489Z,-1.50
2019-01-24T22:25:40.070Z,-1.69
2019-01-24T22:28:09.576Z,-1.55
2019-01-24T22:30:44.674Z,-1.58
2019-01-24T22:33:14.210Z,-1.33
2019-01-24T22:35:43.734Z,-1.65
2019-01-24T22:38:13.213Z,-1.52
2019-01-24T22:40:42.825Z,-1.52
2019-01-24T22:43:12.314Z,-1.56
2019-01-24T22:45:41.919Z,-1.49
2019-01-24T22:48:11.530Z,-1.44
2019-01-24T22:50:41.143Z,-1.65
2019-01-24T22:53:10.792Z,-1.65
2019-01-24T22:55:40.283Z,-1.42
2019-01-24T22:58:09.793Z,-1.42
2019-01-24T23:01:15.994Z,-1.52
2019-01-24T23:04:09.578Z,-1.63
2019-01-24T23:06:39.246Z,-1.55
2019-01-24T23:09:11.360Z,-1.61
2019-01-24T23:11:40.902Z,-1.52
2019-01-24T23:14:10.381Z,-1.74
2019-01-24T23:16:39.873Z,-1.62
2019-01-24T23:19:09.422Z,-1.62
2019-01-24T23:21:39.316Z,-1.67
2019-01-24T23:24:08.813Z,-1.69
2019-01-24T23:26:38.272Z,-1.91
2019-01-24T23:29:07.880Z,-1.91
2019-01-24T23:31:37.433Z,-1.55
2019-01-24T23:34:07.078Z,-1.87
2019-01-24T23:36:36.713Z,-1.45
2019-01-24T23:39:09.740Z,-1.45
2019-01-24T23:41:39.291Z,-1.48
2019-01-24T23:44:08.768Z,-1.77
2019-01-24T23:46:38.477Z,-1.52
2019-01-24T23:49:07.981Z,-1.52
2019-01-24T23:51:37.622Z,-1.46
2019-01-24T23:54:07.111Z,-1.38
2019-01-24T23:56:36.636Z,-1.38
2019-01-24T23:59:06.121Z,-1.52
